Time;durP1;ratioP1;P1;durP2;ratioP2;P2;SDS_P1;SDS_P2;PMS_P1;PMS_P2;Temp;Humidity;BMP_temperature;BMP_pressure;BME280_temperature;BME280_humidity;BME280_pressure;Samples;Min_cycle;Max_cycle;Signal;HPM_P1;HPM_P2
2023/09/08 00:01:48;;;;;;;6.93;6.23;;;19.70;99.90;;;;;;6129969;23;20186;-74
2023/09/08 00:04:14;;;;;;;6.80;6.10;;;19.70;99.90;;;;;;6128611;23;20259;-73
2023/09/08 00:06:40;;;;;;;5.40;4.90;;;19.60;99.90;;;;;;6129049;23;20413;-74
2023/09/08 00:09:07;;;;;;;6.77;6.07;;;19.60;99.90;;;;;;6129234;23;20382;-73
2023/09/08 00:11:32;;;;;;;5.43;4.93;;;19.60;99.90;;;;;;6128446;23;20454;-72
2023/09/08 00:13:58;;;;;;;8.83;6.33;;;19.60;99.90;;;;;;6128287;23;20399;-73
2023/09/08 00:16:24;;;;;;;6.80;6.20;;;19.50;99.90;;;;;;6131992;23;20124;-72
2023/09/08 00:18:50;;;;;;;6.63;5.93;;;19.40;99.90;;;;;;6131771;23;20264;-73
2023/09/08 00:21:15;;;;;;;7.10;6.07;;;19.40;99.90;;;;;;6121419;23;20139;-74
2023/09/08 00:23:44;;;;;;;5.90;5.40;;;19.40;99.90;;;;;;6122323;23;20407;-74
2023/09/08 00:26:10;;;;;;;5.80;5.30;;;19.40;99.90;;;;;;6021454;23;20171;-73
2023/09/08 00:28:36;;;;;;;5.70;5.13;;;19.30;99.90;;;;;;6039035;23;20445;-73
2023/09/08 00:31:02;;;;;;;7.30;6.20;;;19.20;99.90;;;;;;6039250;23;20540;-73
2023/09/08 00:33:27;;;;;;;6.10;5.53;;;19.20;99.90;;;;;;6038331;23;20166;-73
2023/09/08 00:35:53;;;;;;;5.67;5.07;;;19.10;99.90;;;;;;6015784;23;20164;-72
2023/09/08 00:38:19;;;;;;;6.00;5.10;;;19.00;99.90;;;;;;6040041;23;20519;-74
2023/09/08 00:40:45;;;;;;;5.93;5.33;;;19.00;99.90;;;;;;6014407;23;20157;-73
2023/09/08 00:43:10;;;;;;;6.10;5.50;;;18.90;99.90;;;;;;6014385;23;20180;-74
2023/09/08 00:45:41;;;;;;;6.80;5.27;;;18.80;99.90;;;;;;6039200;23;20156;-75
2023/09/08 00:48:07;;;;;;;5.63;5.10;;;18.80;99.90;;;;;;6038805;23;20249;-74
2023/09/08 00:50:35;;;;;;;5.93;5.33;;;18.70;99.90;;;;;;6014960;23;20386;-74
2023/09/08 00:53:01;;;;;;;7.40;5.60;;;18.70;99.90;;;;;;6014404;23;20767;-73
2023/09/08 00:55:27;;;;;;;5.70;4.87;;;18.60;99.90;;;;;;6038794;23;20366;-74
2023/09/08 00:57:52;;;;;;;4.47;4.07;;;18.60;99.90;;;;;;6111702;23;20566;-72
2023/09/08 01:00:18;;;;;;;5.40;4.90;;;18.50;99.90;;;;;;6103670;23;20139;-74
2023/09/08 01:02:45;;;;;;;5.53;5.00;;;18.50;99.90;;;;;;6101762;23;20151;-75
2023/09/08 01:05:11;;;;;;;6.20;4.63;;;18.40;99.90;;;;;;6128104;23;20405;-72
2023/09/08 01:07:36;;;;;;;5.60;4.97;;;18.40;99.90;;;;;;6103029;23;20954;-72
2023/09/08 01:10:06;;;;;;;9.10;5.60;;;18.30;99.90;;;;;;6128875;23;20370;-73
2023/09/08 01:12:34;;;;;;;6.33;5.73;;;18.30;99.90;;;;;;6128242;23;20507;-74
2023/09/08 01:15:01;;;;;;;6.17;5.30;;;18.30;99.90;;;;;;6128589;23;20866;-74
2023/09/08 01:17:27;;;;;;;5.90;5.30;;;18.30;99.90;;;;;;6128539;23;20353;-73
2023/09/08 01:19:55;;;;;;;5.67;4.67;;;18.20;99.90;;;;;;6128396;23;20385;-73
2023/09/08 01:22:47;;;;;;;5.47;4.97;;;18.20;99.90;;;;;;6128825;23;20195;-74
2023/09/08 01:25:19;;;;;;;6.03;5.30;;;18.10;99.90;;;;;;6102062;23;20390;-72
2023/09/08 01:27:48;;;;;;;6.03;5.30;;;18.10;99.90;;;;;;6102550;23;20941;-72
2023/09/08 01:30:15;;;;;;;5.70;4.60;;;18.10;99.90;;;;;;6128428;23;20377;-74
2023/09/08 01:32:42;;;;;;;5.67;4.60;;;18.00;99.90;;;;;;6102726;23;20457;-73
2023/09/08 01:35:08;;;;;;;5.17;4.67;;;18.00;99.90;;;;;;6102197;23;20615;-73
2023/09/08 01:37:34;;;;;;;4.83;4.40;;;18.00;99.90;;;;;;6103359;23;20395;-72
2023/09/08 01:39:59;;;;;;;5.50;5.00;;;17.90;99.90;;;;;;6128612;23;20453;-73
2023/09/08 01:42:25;;;;;;;5.90;5.30;;;17.90;99.90;;;;;;6127432;23;20149;-74
2023/09/08 01:44:51;;;;;;;8.37;5.70;;;17.80;99.90;;;;;;6127554;23;20405;-73
2023/09/08 01:47:17;;;;;;;5.70;5.20;;;17.80;99.90;;;;;;6102596;23;20179;-73
2023/09/08 01:49:43;;;;;;;6.17;5.47;;;17.80;99.90;;;;;;6128170;23;20535;-74
2023/09/08 01:52:08;;;;;;;6.63;5.93;;;17.80;99.90;;;;;;6128156;23;20366;-74
2023/09/08 01:54:34;;;;;;;6.60;5.77;;;17.70;99.90;;;;;;6104389;23;20163;-73
2023/09/08 01:57:00;;;;;;;7.20;6.50;;;17.70;99.90;;;;;;6080088;23;20178;-73
2023/09/08 01:59:26;;;;;;;7.00;6.03;;;17.70;99.90;;;;;;6104420;23;20433;-72
2023/09/08 02:01:51;;;;;;;10.90;6.50;;;17.70;99.90;;;;;;6130518;23;20510;-72
2023/09/08 02:04:17;;;;;;;6.30;5.70;;;17.70;99.90;;;;;;6099256;23;20235;-74
2023/09/08 02:06:42;;;;;;;6.67;4.80;;;17.60;99.90;;;;;;6075609;23;20170;-73
2023/09/08 02:09:11;;;;;;;7.37;5.77;;;17.60;99.90;;;;;;6100522;23;20156;-74
2023/09/08 02:11:37;;;;;;;5.80;4.80;;;17.60;99.90;;;;;;6098895;23;20153;-73
2023/09/08 02:14:02;;;;;;;6.07;5.20;;;17.60;99.90;;;;;;6100639;23;20416;-74
2023/09/08 02:16:28;;;;;;;7.03;5.73;;;17.60;99.90;;;;;;6100324;23;20144;-73
2023/09/08 02:18:54;;;;;;;6.23;5.60;;;17.60;99.90;;;;;;6100617;23;20432;-73
2023/09/08 02:21:19;;;;;;;6.13;5.27;;;17.50;99.90;;;;;;6099418;23;20216;-70
2023/09/08 02:23:45;;;;;;;7.80;6.10;;;17.50;99.90;;;;;;6103544;23;20176;-74
2023/09/08 02:26:10;;;;;;;5.43;4.83;;;17.50;99.90;;;;;;6102205;23;20626;-73
2023/09/08 02:28:36;;;;;;;7.23;6.10;;;17.40;99.90;;;;;;6100936;23;20245;-73
2023/09/08 02:31:02;;;;;;;5.80;5.20;;;17.40;99.90;;;;;;6100764;23;20141;-73
2023/09/08 02:33:28;;;;;;;5.30;4.80;;;17.40;99.90;;;;;;6097853;23;20176;-73
2023/09/08 02:35:55;;;;;;;5.83;4.90;;;17.40;99.90;;;;;;6100002;23;20222;-73
2023/09/08 02:38:20;;;;;;;4.83;4.40;;;17.30;99.90;;;;;;6099254;23;20787;-72
2023/09/08 02:40:47;;;;;;;6.17;4.67;;;17.30;99.90;;;;;;6098850;23;20197;-72
2023/09/08 02:43:13;;;;;;;5.63;5.10;;;17.30;99.90;;;;;;6074715;23;20749;-74
2023/09/08 02:45:39;;;;;;;6.97;5.50;;;17.20;99.90;;;;;;6098551;23;20496;-74
2023/09/08 02:48:05;;;;;;;4.97;4.57;;;17.20;99.90;;;;;;6098970;23;20422;-73
2023/09/08 02:50:31;;;;;;;7.10;6.50;;;17.20;99.90;;;;;;6099794;23;20404;-73
2023/09/08 02:52:57;;;;;;;6.77;5.80;;;17.20;99.90;;;;;;6098972;23;20635;-75
2023/09/08 02:55:22;;;;;;;6.93;6.23;;;17.20;99.90;;;;;;6100062;23;20145;-74
2023/09/08 02:57:48;;;;;;;6.87;6.17;;;17.20;99.90;;;;;;6099721;23;20197;-73
2023/09/08 03:00:14;;;;;;;6.50;5.80;;;17.20;99.90;;;;;;6099397;23;20156;-72
2023/09/08 03:02:39;;;;;;;6.30;5.70;;;17.20;99.90;;;;;;6100407;23;20224;-74
2023/09/08 03:05:06;;;;;;;6.93;5.60;;;17.20;99.90;;;;;;6109217;23;20179;-74
2023/09/08 03:07:33;;;;;;;6.40;5.50;;;17.20;99.90;;;;;;6112536;23;20423;-72
2023/09/08 03:09:59;;;;;;;7.13;6.13;;;17.20;99.90;;;;;;6108284;23;20408;-72
2023/09/08 03:12:25;;;;;;;6.33;5.73;;;17.20;99.90;;;;;;6109239;23;20364;-74
2023/09/08 03:14:50;;;;;;;11.20;6.03;;;17.20;99.90;;;;;;6112839;23;20231;-73
2023/09/08 03:17:16;;;;;;;6.40;5.23;;;17.20;99.90;;;;;;6090540;23;20144;-73
2023/09/08 03:19:45;;;;;;;6.90;5.53;;;17.20;99.90;;;;;;6114916;23;20449;-74
2023/09/08 03:22:11;;;;;;;6.20;5.57;;;17.20;99.90;;;;;;6107363;23;20156;-75
2023/09/08 03:24:36;;;;;;;6.53;5.90;;;17.10;99.90;;;;;;6130314;23;20511;-73
2023/09/08 03:27:02;;;;;;;5.87;5.27;;;17.10;99.90;;;;;;6104813;23;20327;-75
2023/09/08 03:29:28;;;;;;;6.70;6.00;;;17.10;99.90;;;;;;6130675;23;20164;-75
2023/09/08 03:31:53;;;;;;;6.70;5.37;;;17.10;99.90;;;;;;6129560;23;20137;-74
2023/09/08 03:34:20;;;;;;;6.53;5.93;;;17.10;99.90;;;;;;6103768;23;20239;-72
2023/09/08 03:36:47;;;;;;;5.67;5.07;;;17.10;99.90;;;;;;6104005;23;20526;-74
2023/09/08 03:39:13;;;;;;;6.97;6.27;;;17.10;99.90;;;;;;6080447;23;20368;-74
2023/09/08 03:41:38;;;;;;;7.63;6.33;;;17.10;99.90;;;;;;6103117;23;20445;-74
2023/09/08 03:44:04;;;;;;;6.07;5.47;;;17.10;99.90;;;;;;6103110;23;20172;-73
2023/09/08 03:46:29;;;;;;;6.77;6.17;;;17.10;99.90;;;;;;6129548;23;20149;-74
2023/09/08 03:49:00;;;;;;;7.23;6.53;;;17.10;99.90;;;;;;6103385;23;20191;-73
2023/09/08 03:51:26;;;;;;;7.20;6.20;;;17.10;99.90;;;;;;6103653;23;20148;-72
2023/09/08 03:53:52;;;;;;;6.60;5.80;;;17.10;99.90;;;;;;6131093;23;20536;-73
2023/09/08 03:56:17;;;;;;;7.07;6.40;;;17.10;99.90;;;;;;6109223;23;20369;-74
2023/09/08 03:58:43;;;;;;;7.40;6.57;;;17.10;99.90;;;;;;6084766;23;20171;-73
2023/09/08 04:01:09;;;;;;;7.37;6.50;;;17.10;99.90;;;;;;6108464;23;20586;-73
2023/09/08 04:03:35;;;;;;;7.73;6.60;;;17.10;99.90;;;;;;6108036;23;20215;-73
2023/09/08 04:06:00;;;;;;;7.93;7.10;;;17.10;99.90;;;;;;6109986;23;20385;-74
2023/09/08 04:08:26;;;;;;;6.30;5.40;;;17.10;99.90;;;;;;6105089;23;20175;-76
2023/09/08 04:10:52;;;;;;;7.90;6.90;;;17.10;99.90;;;;;;6128700;23;20139;-72
2023/09/08 04:13:18;;;;;;;7.27;6.50;;;17.10;99.90;;;;;;6127975;23;20241;-74
2023/09/08 04:15:43;;;;;;;6.73;6.13;;;17.10;99.90;;;;;;6102566;23;20247;-76
2023/09/08 04:18:09;;;;;;;8.23;6.63;;;17.10;99.90;;;;;;6102806;23;20372;-73
2023/09/08 04:20:34;;;;;;;8.33;7.50;;;17.10;99.90;;;;;;6103642;23;20147;-72
2023/09/08 04:23:00;;;;;;;7.10;6.40;;;17.10;99.90;;;;;;6128609;23;20169;-75
2023/09/08 04:25:26;;;;;;;8.20;6.40;;;17.20;99.90;;;;;;6079708;23;20183;-73
2023/09/08 04:27:51;;;;;;;7.17;6.47;;;17.20;99.90;;;;;;6128294;23;20171;-74
2023/09/08 04:30:17;;;;;;;9.17;7.10;;;17.20;99.90;;;;;;6129318;23;20446;-73
2023/09/08 04:32:43;;;;;;;6.20;5.60;;;17.10;99.90;;;;;;6103394;23;20144;-75
2023/09/08 04:35:09;;;;;;;9.03;5.90;;;17.10;99.90;;;;;;6128798;23;20438;-73
2023/09/08 04:37:36;;;;;;;7.57;6.77;;;17.10;99.90;;;;;;6128263;23;20144;-74
2023/09/08 04:40:04;;;;;;;9.57;6.17;;;17.10;99.90;;;;;;6103468;23;20364;-74
2023/09/08 04:42:30;;;;;;;6.60;6.00;;;17.10;99.90;;;;;;6103095;23;20615;-74
2023/09/08 04:44:57;;;;;;;11.63;6.30;;;17.00;99.90;;;;;;6104368;23;20388;-73
2023/09/08 04:47:22;;;;;;;8.97;6.37;;;17.10;99.90;;;;;;6104011;23;20877;-74
2023/09/08 04:49:48;;;;;;;7.27;6.53;;;17.00;99.90;;;;;;6104254;23;20576;-74
2023/09/08 04:52:14;;;;;;;6.43;5.80;;;17.00;99.90;;;;;;6104510;23;20144;-73
2023/09/08 04:54:40;;;;;;;6.93;6.23;;;17.00;99.90;;;;;;6103979;23;20178;-75
2023/09/08 04:57:06;;;;;;;6.80;5.83;;;17.00;99.90;;;;;;6102954;23;20390;-75
2023/09/08 04:59:32;;;;;;;10.20;7.40;;;17.00;99.90;;;;;;6104359;23;20172;-75
2023/09/08 05:01:59;;;;;;;7.60;6.80;;;17.00;99.90;;;;;;6111605;23;20783;-75
2023/09/08 05:04:25;;;;;;;11.53;6.10;;;17.00;99.90;;;;;;6114790;23;20415;-73
2023/09/08 05:06:51;;;;;;;6.57;5.97;;;17.00;99.90;;;;;;6089812;23;20407;-76
2023/09/08 05:09:18;;;;;;;7.03;6.37;;;17.00;99.90;;;;;;6113712;23;20148;-74
2023/09/08 05:11:43;;;;;;;7.10;5.60;;;17.00;99.90;;;;;;6113991;23;20388;-73
2023/09/08 05:14:09;;;;;;;7.83;7.00;;;17.00;99.90;;;;;;6112535;23;20171;-74
2023/09/08 05:16:45;;;;;;;7.07;6.37;;;17.00;99.90;;;;;;6092585;23;20155;-78
2023/09/08 05:19:13;;;;;;;10.67;6.20;;;17.00;99.90;;;;;;6091391;23;20375;-74
2023/09/08 05:21:40;;;;;;;9.07;6.73;;;17.00;99.90;;;;;;6092610;23;20441;-76
2023/09/08 05:24:06;;;;;;;6.93;6.23;;;17.00;99.90;;;;;;6092227;23;20502;-77
2023/09/08 05:26:32;;;;;;;7.67;6.20;;;17.00;99.90;;;;;;6117709;23;20376;-76
2023/09/08 05:28:59;;;;;;;8.97;6.87;;;17.10;99.90;;;;;;6120190;23;20415;-75
2023/09/08 05:31:26;;;;;;;11.40;7.63;;;17.10;99.90;;;;;;6098018;23;20348;-76
2023/09/08 05:33:52;;;;;;;6.87;6.13;;;17.20;99.90;;;;;;6096958;23;20401;-75
2023/09/08 05:36:18;;;;;;;9.50;5.83;;;17.20;99.90;;;;;;6098692;23;20390;-74
2023/09/08 05:38:44;;;;;;;8.80;6.13;;;17.20;99.90;;;;;;6120091;23;20154;-78
2023/09/08 05:41:10;;;;;;;7.50;6.67;;;17.20;99.90;;;;;;6119995;23;20375;-74
2023/09/08 05:43:36;;;;;;;8.93;5.87;;;17.30;99.90;;;;;;6095778;23;20829;-74
2023/09/08 05:46:03;;;;;;;8.00;5.93;;;17.40;99.90;;;;;;6098642;23;20391;-75
2023/09/08 05:48:30;;;;;;;7.30;6.50;;;17.40;99.90;;;;;;6075794;23;20184;-76
2023/09/08 05:50:56;;;;;;;8.93;6.03;;;17.50;99.90;;;;;;6099446;23;20368;-75
2023/09/08 05:53:21;;;;;;;8.00;6.40;;;17.60;99.90;;;;;;6072203;23;20231;-77
2023/09/08 05:55:48;;;;;;;9.13;6.83;;;17.70;99.90;;;;;;6120588;23;20359;-75
2023/09/08 05:58:14;;;;;;;7.87;6.00;;;17.70;99.90;;;;;;6095449;23;20156;-75
2023/09/08 06:00:40;;;;;;;7.97;6.20;;;17.70;99.90;;;;;;6121114;23;20391;-75
2023/09/08 06:03:07;;;;;;;14.70;6.47;;;17.80;99.90;;;;;;6147867;23;20189;-75
2023/09/08 06:05:33;;;;;;;7.87;6.03;;;17.80;99.90;;;;;;6098592;23;20377;-75
2023/09/08 06:07:59;;;;;;;8.90;6.00;;;17.90;99.90;;;;;;6097918;23;20488;-76
2023/09/08 06:10:30;;;;;;;8.30;6.03;;;17.90;99.90;;;;;;6062951;23;20145;-75
2023/09/08 06:12:57;;;;;;;6.00;5.40;;;18.00;99.90;;;;;;6040535;23;20179;-75
2023/09/08 06:15:22;;;;;;;8.23;6.53;;;18.00;99.90;;;;;;6041687;23;20411;-75
2023/09/08 06:17:48;;;;;;;11.03;5.40;;;18.10;99.90;;;;;;6039201;23;20391;-76
2023/09/08 06:20:16;;;;;;;9.10;6.80;;;18.20;99.90;;;;;;6037504;23;20232;-76
2023/09/08 06:22:43;;;;;;;6.47;5.80;;;18.30;99.90;;;;;;6038026;23;20841;-74
2023/09/08 06:25:12;;;;;;;6.30;5.50;;;18.30;99.90;;;;;;6037446;23;20469;-77
2023/09/08 06:27:46;;;;;;;10.03;5.93;;;18.40;99.90;;;;;;6062347;23;20416;-78
2023/09/08 06:30:22;;;;;;;6.63;6.03;;;18.50;99.90;;;;;;6042561;23;20379;-77
2023/09/08 06:32:48;;;;;;;9.93;6.40;;;18.50;99.90;;;;;;6066258;23;20407;-75
2023/09/08 06:35:15;;;;;;;6.90;6.20;;;18.60;99.90;;;;;;6064339;23;20366;-77
2023/09/08 06:37:42;;;;;;;6.50;5.10;;;18.70;99.90;;;;;;6065653;23;20742;-74
2023/09/08 06:40:09;;;;;;;6.00;5.13;;;18.70;99.90;;;;;;6062261;23;20381;-78
2023/09/08 06:42:35;;;;;;;6.53;5.47;;;18.80;99.90;;;;;;6098264;23;20367;-77
2023/09/08 06:45:19;;;;;;;6.70;4.80;;;18.80;99.90;;;;;;6125663;23;20437;-75
2023/09/08 06:47:46;;;;;;;8.87;6.23;;;18.80;99.90;;;;;;6124593;23;20418;-75
2023/09/08 06:50:13;;;;;;;6.60;5.90;;;18.90;99.90;;;;;;6099965;23;20371;-74
2023/09/08 06:52:39;;;;;;;6.47;5.77;;;19.00;99.90;;;;;;6122223;23;20426;-74
2023/09/08 06:55:05;;;;;;;12.03;5.93;;;19.00;99.90;;;;;;6097739;23;20149;-76
2023/09/08 06:57:31;;;;;;;6.20;5.60;;;19.00;99.90;;;;;;6098105;23;20160;-78
2023/09/08 06:59:57;;;;;;;6.80;5.53;;;19.10;99.90;;;;;;6098741;23;20378;-74
2023/09/08 07:02:22;;;;;;;8.77;6.37;;;19.20;99.90;;;;;;6098958;23;20146;-74
2023/09/08 07:04:48;;;;;;;8.67;6.50;;;19.20;99.90;;;;;;6147283;23;20222;-77
2023/09/08 07:07:14;;;;;;;7.70;5.80;;;19.30;99.90;;;;;;6122551;23;20521;-77
2023/09/08 07:09:44;;;;;;;7.43;5.50;;;19.40;99.90;;;;;;6122132;23;20169;-74
2023/09/08 07:12:11;;;;;;;6.60;6.00;;;19.40;99.90;;;;;;6098436;23;20704;-77
2023/09/08 07:14:38;;;;;;;7.23;6.03;;;19.50;99.90;;;;;;6123834;23;20454;-77
2023/09/08 07:17:05;;;;;;;8.50;4.97;;;19.50;99.90;;;;;;6098501;23;20393;-77
2023/09/08 07:19:38;;;;;;;5.90;5.30;;;19.60;99.90;;;;;;6150079;23;20386;-76
2023/09/08 07:22:06;;;;;;;6.40;5.47;;;19.70;99.90;;;;;;6102297;23;20363;-75
2023/09/08 07:24:33;;;;;;;6.30;5.70;;;19.70;99.90;;;;;;6100017;23;20402;-77
2023/09/08 07:27:00;;;;;;;7.17;5.50;;;19.80;99.90;;;;;;6042128;23;20449;-76
2023/09/08 07:29:26;;;;;;;5.97;5.33;;;19.90;99.90;;;;;;6088064;23;20413;-75
2023/09/08 07:31:52;;;;;;;6.80;5.43;;;20.00;99.90;;;;;;6063412;23;20385;-75
2023/09/08 07:34:22;;;;;;;7.77;5.90;;;20.10;99.90;;;;;;6063382;23;20396;-76
2023/09/08 07:36:48;;;;;;;5.33;4.83;;;20.10;99.90;;;;;;6064183;23;20216;-77
2023/09/08 07:39:14;;;;;;;6.00;5.33;;;20.20;99.90;;;;;;6084066;23;20439;-75
2023/09/08 07:41:41;;;;;;;6.70;5.60;;;20.30;98.00;;;;;;6063767;23;20385;-76
2023/09/08 07:44:08;;;;;;;7.43;5.30;;;20.40;97.50;;;;;;6038244;23;20184;-76
2023/09/08 07:46:34;;;;;;;9.87;5.50;;;20.50;96.80;;;;;;6062129;23;20457;-76
2023/09/08 07:49:00;;;;;;;8.30;4.80;;;20.60;95.90;;;;;;6061322;23;20526;-76
2023/09/08 07:51:27;;;;;;;5.63;4.90;;;20.70;95.40;;;;;;6063069;23;20396;-75
2023/09/08 07:54:07;;;;;;;5.40;4.90;;;20.80;94.80;;;;;;6061096;23;20465;-76
2023/09/08 07:56:38;;;;;;;14.50;6.00;;;20.80;94.30;;;;;;6032508;23;20453;-76
2023/09/08 07:59:04;;;;;;;6.03;5.27;;;20.90;93.60;;;;;;6089694;23;20385;-76
2023/09/08 08:01:40;;;;;;;5.77;5.23;;;21.00;92.90;;;;;;6091685;23;20771;-78
2023/09/08 08:04:10;;;;;;;7.30;5.23;;;21.10;92.40;;;;;;6062675;23;20435;-76
2023/09/08 08:06:37;;;;;;;5.97;5.40;;;21.20;91.80;;;;;;6062884;23;20397;-77
2023/09/08 08:09:03;;;;;;;5.90;4.80;;;21.30;91.30;;;;;;6061029;23;20436;-74
2023/09/08 08:11:31;;;;;;;8.70;5.10;;;21.40;90.80;;;;;;6063381;23;20358;-76
2023/09/08 08:14:10;;;;;;;6.10;5.27;;;21.40;90.50;;;;;;6039343;23;20493;-76
2023/09/08 08:16:35;;;;;;;8.40;4.97;;;21.50;90.10;;;;;;6062256;23;20373;-75
2023/09/08 08:19:04;;;;;;;6.97;5.60;;;21.60;89.40;;;;;;6037623;23;20453;-74
2023/09/08 08:21:31;;;;;;;6.97;4.93;;;21.70;88.70;;;;;;6058956;23;20196;-76
2023/09/08 08:23:58;;;;;;;6.17;4.83;;;21.80;87.50;;;;;;6068767;23;20400;-77
2023/09/08 08:26:28;;;;;;;5.20;4.70;;;21.90;86.60;;;;;;6069684;23;20903;-78
2023/09/08 08:28:56;;;;;;;8.17;6.80;;;22.00;86.00;;;;;;6090834;23;20452;-76
2023/09/08 08:31:24;;;;;;;9.30;6.33;;;22.10;84.10;;;;;;6092597;23;20380;-76
2023/09/08 08:33:50;;;;;;;8.43;6.27;;;22.20;83.30;;;;;;6069237;23;20255;-76
2023/09/08 08:36:16;;;;;;;6.80;6.10;;;22.30;82.90;;;;;;6122566;23;20382;-75
2023/09/08 08:38:42;;;;;;;9.63;5.67;;;22.30;82.10;;;;;;6096428;23;20663;-77
2023/09/08 08:41:11;;;;;;;6.43;5.30;;;22.40;81.10;;;;;;6098019;23;20147;-77
2023/09/08 08:43:37;;;;;;;7.40;4.83;;;22.50;80.00;;;;;;6073915;23;20261;-77
2023/09/08 08:46:10;;;;;;;7.37;5.40;;;22.60;78.90;;;;;;6088902;23;20460;-77
2023/09/08 08:48:39;;;;;;;5.97;5.37;;;22.70;78.50;;;;;;6062947;23;20421;-76
2023/09/08 08:51:05;;;;;;;6.57;5.20;;;22.80;78.00;;;;;;6063380;23;20388;-76
2023/09/08 08:53:33;;;;;;;7.60;6.03;;;22.90;77.70;;;;;;6039961;23;20405;-76
2023/09/08 08:56:06;;;;;;;5.60;5.00;;;23.00;76.70;;;;;;6039190;23;20382;-75
2023/09/08 08:58:39;;;;;;;6.17;5.03;;;23.10;75.90;;;;;;6064451;23;20464;-77
2023/09/08 09:01:06;;;;;;;6.67;5.30;;;23.10;75.80;;;;;;6062647;23;20449;-76
2023/09/08 09:03:34;;;;;;;8.53;5.33;;;23.20;75.10;;;;;;6040898;23;20411;-76
2023/09/08 09:06:03;;;;;;;7.10;5.17;;;23.20;75.20;;;;;;6018865;23;20390;-77
2023/09/08 09:08:33;;;;;;;5.73;5.23;;;23.40;75.00;;;;;;6041709;23;20417;-75
2023/09/08 09:11:00;;;;;;;4.77;4.37;;;23.40;74.30;;;;;;6066094;23;20390;-76
2023/09/08 09:13:27;;;;;;;7.43;5.50;;;23.50;73.30;;;;;;6004624;23;20364;-78
2023/09/08 09:16:03;;;;;;;6.43;5.40;;;23.70;72.40;;;;;;6030378;23;20419;-77
2023/09/08 09:18:31;;;;;;;7.30;5.73;;;23.70;72.00;;;;;;6008385;23;20165;-78
2023/09/08 09:21:00;;;;;;;5.00;4.60;;;23.80;71.70;;;;;;5987913;23;20754;-76
2023/09/08 09:23:32;;;;;;;6.27;5.00;;;23.90;71.40;;;;;;6032898;23;20398;-76
2023/09/08 09:26:03;;;;;;;6.27;5.67;;;24.00;70.60;;;;;;6032460;23;20371;-78
2023/09/08 09:28:51;;;;;;;6.77;4.23;;;24.00;70.20;;;;;;6031448;23;20442;-77
2023/09/08 09:31:27;;;;;;;5.40;4.73;;;24.20;70.00;;;;;;6032228;23;20938;-76
2023/09/08 09:34:04;;;;;;;8.87;4.93;;;24.30;69.40;;;;;;6006376;23;20509;-76
2023/09/08 09:36:32;;;;;;;8.63;5.83;;;24.40;69.20;;;;;;6031491;23;20479;-77
2023/09/08 09:39:02;;;;;;;6.23;5.60;;;24.40;68.60;;;;;;6007919;23;20379;-75
2023/09/08 09:41:30;;;;;;;5.00;4.60;;;24.40;68.10;;;;;;6032782;23;20822;-78
2023/09/08 09:44:10;;;;;;;5.80;5.23;;;24.50;67.90;;;;;;5987152;23;20411;-78
2023/09/08 09:46:36;;;;;;;5.90;5.30;;;24.60;67.30;;;;;;6031446;23;20390;-76
2023/09/08 09:49:02;;;;;;;7.13;5.43;;;24.70;66.80;;;;;;6008242;23;20523;-76
2023/09/08 09:51:43;;;;;;;7.60;5.33;;;24.80;66.30;;;;;;6073067;23;20374;-77
2023/09/08 09:54:10;;;;;;;11.60;4.93;;;24.90;66.10;;;;;;6037312;23;20410;-75
2023/09/08 09:56:39;;;;;;;4.97;4.57;;;25.00;65.50;;;;;;6061903;23;20398;-76
2023/09/08 09:59:09;;;;;;;5.63;5.07;;;25.10;65.20;;;;;;6059503;23;20421;-75
2023/09/08 10:01:37;;;;;;;5.87;4.60;;;25.20;64.50;;;;;;6058925;23;20450;-76
2023/09/08 10:07:10;;;;;;;6.63;5.43;;;25.40;64.20;;;;;;6120464;23;20836;-77
2023/09/08 10:09:37;;;;;;;8.47;6.90;;;25.40;63.20;;;;;;6119616;23;20396;-74
2023/09/08 10:12:06;;;;;;;6.97;5.40;;;25.50;62.50;;;;;;6096164;23;20404;-76
2023/09/08 10:17:28;;;;;;;5.70;4.47;;;25.70;62.00;;;;;;6130182;23;20457;-75
2023/09/08 10:20:00;;;;;;;5.83;5.23;;;25.80;61.70;;;;;;6102176;23;20379;-77
2023/09/08 10:22:31;;;;;;;6.50;5.70;;;25.90;60.90;;;;;;6102376;23;20391;-77
2023/09/08 10:25:23;;;;;;;8.33;4.77;;;25.90;60.90;;;;;;6149171;23;20443;-77
2023/09/08 10:28:09;;;;;;;6.53;4.97;;;26.00;60.90;;;;;;6083395;23;20507;-77
2023/09/08 10:31:15;;;;;;;5.47;4.83;;;26.10;60.00;;;;;;6099759;23;20392;-79
2023/09/08 10:34:19;;;;;;;7.20;5.30;;;26.10;59.30;;;;;;6123552;23;20491;-79
2023/09/08 10:36:49;;;;;;;6.03;4.77;;;26.30;58.80;;;;;;6076009;23;20400;-76
2023/09/08 10:39:39;;;;;;;5.40;5.00;;;26.40;58.30;;;;;;6052916;23;20396;-76
2023/09/08 10:42:40;;;;;;;6.43;4.70;;;26.50;58.40;;;;;;6074874;23;20369;-78
2023/09/08 10:45:21;;;;;;;6.00;4.67;;;26.60;57.50;;;;;;6006542;24;20388;-76
2023/09/08 10:47:58;;;;;;;5.27;4.77;;;26.60;57.40;;;;;;5930417;24;20449;-78
2023/09/08 10:50:43;;;;;;;4.57;4.17;;;26.60;57.20;;;;;;5928680;24;20418;-78
2023/09/08 10:53:19;;;;;;;5.57;4.97;;;26.70;56.70;;;;;;5929209;24;20402;-76
2023/09/08 10:55:53;;;;;;;6.00;4.97;;;26.80;56.50;;;;;;5929288;24;20393;-77
2023/09/08 11:04:08;;;;;;;7.60;6.10;;;27.10;56.10;;;;;;6126258;23;20483;-79
2023/09/08 11:06:35;;;;;;;5.43;4.93;;;27.20;56.00;;;;;;5840417;23;251093;-77
2023/09/08 11:09:34;;;;;;;5.67;5.07;;;27.20;56.00;;;;;;5990152;23;20474;-76
2023/09/08 11:15:43;;;;;;;6.80;5.23;;;27.30;55.60;;;;;;6106628;23;20460;-77
2023/09/08 11:18:38;;;;;;;5.50;4.50;;;27.40;54.90;;;;;;6039733;23;20390;-78
2023/09/08 11:21:11;;;;;;;5.80;5.00;;;27.50;55.20;;;;;;6041842;23;20417;-77
2023/09/08 11:23:45;;;;;;;6.63;5.97;;;27.60;54.70;;;;;;6033976;23;20457;-78
2023/09/08 11:26:15;;;;;;;6.83;5.33;;;27.60;53.60;;;;;;6053551;23;20389;-78
2023/09/08 11:28:53;;;;;;;8.47;5.60;;;27.60;54.10;;;;;;6077004;23;20514;-78
2023/09/08 11:31:51;;;;;;;6.47;5.77;;;27.60;54.30;;;;;;6123904;23;20372;-80
2023/09/08 11:34:17;;;;;;;6.93;5.70;;;27.70;54.10;;;;;;6056078;23;20405;-79
2023/09/08 11:36:47;;;;;;;5.83;5.23;;;27.70;53.70;;;;;;6074743;23;20357;-78
2023/09/08 11:39:25;;;;;;;4.77;4.37;;;27.70;53.50;;;;;;6073181;23;20149;-78
2023/09/08 11:41:53;;;;;;;4.77;4.37;;;27.70;53.40;;;;;;6099731;23;20381;-78
2023/09/08 11:44:38;;;;;;;5.30;4.80;;;27.80;53.50;;;;;;6076362;23;20406;-79
2023/09/08 11:49:52;;;;;;;5.90;5.10;;;28.00;53.10;;;;;;6118905;23;20443;-79
2023/09/08 11:52:18;;;;;;;5.80;5.30;;;28.10;52.40;;;;;;6095642;23;20369;-76
2023/09/08 11:54:54;;;;;;;6.20;4.80;;;28.10;52.20;;;;;;6048640;23;20431;-78
2023/09/08 11:57:20;;;;;;;9.07;5.50;;;28.10;51.50;;;;;;6097438;23;20377;-77
2023/09/08 11:59:51;;;;;;;7.80;5.63;;;28.10;51.80;;;;;;6044200;23;20386;-77
2023/09/08 12:02:17;;;;;;;5.17;4.57;;;28.10;51.70;;;;;;6068433;23;20381;-78
2023/09/08 12:04:57;;;;;;;5.67;5.13;;;28.20;52.10;;;;;;6093167;23;20420;-78
2023/09/08 12:07:28;;;;;;;5.87;5.33;;;28.20;52.20;;;;;;6042933;23;20463;-77
2023/09/08 12:09:54;;;;;;;6.40;5.00;;;28.30;51.80;;;;;;6018871;23;20438;-76
2023/09/08 12:20:39;;;;;;;6.50;4.40;;;28.40;51.60;;;;;;6114751;23;20456;-79
2023/09/08 12:53:18;;;;;;;4.90;4.47;;;28.50;51.10;;;;;;6105452;23;20447;-79
2023/09/08 12:58:48;;;;;;;5.67;5.17;;;28.60;50.40;;;;;;6057665;23;20447;-78
2023/09/08 13:04:31;;;;;;;8.00;5.03;;;28.50;49.90;;;;;;6093261;23;20472;-77
2023/09/08 13:09:47;;;;;;;4.50;4.10;;;28.50;50.30;;;;;;6110492;23;20455;-78
2023/09/08 13:12:15;;;;;;;5.13;4.60;;;28.60;50.70;;;;;;6098182;23;20377;-78
2023/09/08 13:14:43;;;;;;;5.03;4.30;;;28.60;50.90;;;;;;6036187;23;20528;-78
2023/09/08 13:17:15;;;;;;;5.77;4.23;;;28.60;51.20;;;;;;6092990;23;20384;-77
2023/09/08 13:19:42;;;;;;;4.93;4.40;;;28.60;51.30;;;;;;6020672;23;20377;-78
2023/09/08 13:22:13;;;;;;;5.50;5.10;;;28.80;49.80;;;;;;5999965;23;20456;-79
2023/09/08 13:24:46;;;;;;;4.37;4.07;;;28.80;49.60;;;;;;6069430;23;20406;-78
2023/09/08 13:27:17;;;;;;;6.80;4.73;;;28.80;50.50;;;;;;6070371;23;20421;-78
2023/09/08 13:35:19;;;;;;;5.77;5.17;;;28.80;49.70;;;;;;6123007;23;20455;-78
2023/09/08 13:40:57;;;;;;;6.00;5.40;;;28.70;50.50;;;;;;6100650;23;20464;-79
2023/09/08 13:52:38;;;;;;;5.00;4.57;;;28.90;50.30;;;;;;6118419;23;20471;-77
2023/09/08 13:58:26;;;;;;;5.27;4.10;;;28.90;49.80;;;;;;6107484;23;20435;-77
2023/09/08 14:01:02;;;;;;;5.23;4.83;;;28.90;50.10;;;;;;6099409;23;20463;-78
2023/09/08 14:06:52;;;;;;;5.50;4.73;;;28.90;49.80;;;;;;6107572;23;20487;-78
2023/09/08 14:14:49;;;;;;;5.70;5.20;;;29.00;49.90;;;;;;6121355;23;20495;-78
2023/09/08 14:17:25;;;;;;;6.60;5.47;;;29.00;49.50;;;;;;6064637;23;20382;-79
2023/09/08 14:19:53;;;;;;;6.30;5.70;;;29.10;49.50;;;;;;6017470;23;20440;-77
2023/09/08 14:22:29;;;;;;;6.70;6.00;;;29.10;49.70;;;;;;6041852;23;20375;-78
2023/09/08 14:25:22;;;;;;;5.60;5.00;;;29.10;49.00;;;;;;6037929;23;20387;-79
2023/09/08 14:28:10;;;;;;;7.40;5.00;;;29.20;49.30;;;;;;5998674;23;20427;-78
2023/09/08 14:30:38;;;;;;;5.80;5.30;;;29.20;49.60;;;;;;6035989;23;20435;-79